Ilasco, Missouri
Current Conditions -  °F | °C
As of 5:55 AM on Saturday 25 Oct 2014 (Local Time) from KHAE Reporting Station
Haze Haze  
Wind Chill: 59°   Ceiling: Unl
Heat Index: 59°   Visibility: 2.5mi
Dew Point: 55°   Wind: 3mph
Humidity: 88%   Direction: 290°WNW
Pressure: 30.01"   Gusts: NA
Location:  39.7145°N, 91.4209°W
Report Text: KHAE 251055Z AUTO 29003KT 2 1/2SM BR CLR 15/13 A3001 RMK AO2
Loading
Personal Weather Stations






























Interactive Weather Map New forecast layout! Learn more

10-Day Weather Forecast

Advertisements
Track Severe Weather on mobile